sensor_id;sensor_type;location;lat;lon;timestamp;P1;durP1;ratioP1;P2;durP2;ratioP2
78740;SDS011;68062;48.726;9.370;2023-02-28T00:01:39;3.03;;;2.30;;
78740;SDS011;68062;48.726;9.370;2023-02-28T00:04:05;4.13;;;2.40;;
78740;SDS011;68062;48.726;9.370;2023-02-28T00:06:34;3.27;;;2.30;;
78740;SDS011;68062;48.726;9.370;2023-02-28T00:09:02;3.43;;;2.10;;
78740;SDS011;68062;48.726;9.370;2023-02-28T00:11:28;2.50;;;1.80;;
78740;SDS011;68062;48.726;9.370;2023-02-28T00:13:55;2.60;;;2.40;;
78740;SDS011;68062;48.726;9.370;2023-02-28T00:16:21;2.60;;;1.73;;
78740;SDS011;68062;48.726;9.370;2023-02-28T00:18:48;1.93;;;1.60;;
78740;SDS011;68062;48.726;9.370;2023-02-28T00:21:15;2.20;;;1.93;;
78740;SDS011;68062;48.726;9.370;2023-02-28T00:23:42;2.57;;;2.23;;
78740;SDS011;68062;48.726;9.370;2023-02-28T00:26:10;2.40;;;1.83;;
78740;SDS011;68062;48.726;9.370;2023-02-28T00:28:37;3.10;;;2.10;;
78740;SDS011;68062;48.726;9.370;2023-02-28T00:31:03;1.83;;;1.70;;
78740;SDS011;68062;48.726;9.370;2023-02-28T00:33:30;3.37;;;1.90;;
78740;SDS011;68062;48.726;9.370;2023-02-28T00:36:03;2.57;;;2.37;;
78740;SDS011;68062;48.726;9.370;2023-02-28T00:38:31;2.10;;;1.87;;
78740;SDS011;68062;48.726;9.370;2023-02-28T00:40:57;2.83;;;2.70;;
78740;SDS011;68062;48.726;9.370;2023-02-28T00:43:30;2.40;;;2.20;;
78740;SDS011;68062;48.726;9.370;2023-02-28T00:45:57;2.13;;;1.97;;
78740;SDS011;68062;48.726;9.370;2023-02-28T00:48:24;3.17;;;2.10;;
78740;SDS011;68062;48.726;9.370;2023-02-28T00:50:50;2.47;;;2.07;;
78740;SDS011;68062;48.726;9.370;2023-02-28T00:53:17;3.57;;;2.33;;
78740;SDS011;68062;48.726;9.370;2023-02-28T00:55:44;2.23;;;1.90;;
78740;SDS011;68062;48.726;9.370;2023-02-28T00:58:10;2.50;;;2.30;;
78740;SDS011;68062;48.726;9.370;2023-02-28T01:00:38;2.83;;;2.53;;
78740;SDS011;68062;48.726;9.370;2023-02-28T01:03:04;3.17;;;2.93;;
78740;SDS011;68062;48.726;9.370;2023-02-28T01:05:31;3.63;;;1.97;;
78740;SDS011;68062;48.726;9.370;2023-02-28T01:07:57;3.20;;;2.30;;
78740;SDS011;68062;48.726;9.370;2023-02-28T01:10:24;3.00;;;2.73;;
78740;SDS011;68062;48.726;9.370;2023-02-28T01:12:51;2.80;;;2.60;;
78740;SDS011;68062;48.726;9.370;2023-02-28T01:15:17;6.33;;;3.00;;
78740;SDS011;68062;48.726;9.370;2023-02-28T01:17:45;2.40;;;2.20;;
78740;SDS011;68062;48.726;9.370;2023-02-28T01:20:12;3.40;;;2.43;;
78740;SDS011;68062;48.726;9.370;2023-02-28T01:22:39;3.00;;;2.17;;
78740;SDS011;68062;48.726;9.370;2023-02-28T01:25:06;1.90;;;1.67;;
78740;SDS011;68062;48.726;9.370;2023-02-28T01:27:33;3.53;;;2.13;;
78740;SDS011;68062;48.726;9.370;2023-02-28T01:30:00;3.27;;;2.20;;
78740;SDS011;68062;48.726;9.370;2023-02-28T01:32:27;2.30;;;2.10;;
78740;SDS011;68062;48.726;9.370;2023-02-28T01:34:55;2.70;;;2.50;;
78740;SDS011;68062;48.726;9.370;2023-02-28T01:37:22;3.33;;;2.70;;
78740;SDS011;68062;48.726;9.370;2023-02-28T01:39:48;2.60;;;2.40;;
78740;SDS011;68062;48.726;9.370;2023-02-28T01:42:19;2.20;;;2.00;;
78740;SDS011;68062;48.726;9.370;2023-02-28T01:47:48;3.20;;;2.70;;
78740;SDS011;68062;48.726;9.370;2023-02-28T01:50:19;5.47;;;3.03;;
78740;SDS011;68062;48.726;9.370;2023-02-28T01:52:47;3.73;;;2.80;;
78740;SDS011;68062;48.726;9.370;2023-02-28T01:55:15;3.67;;;2.53;;
78740;SDS011;68062;48.726;9.370;2023-02-28T01:57:45;2.70;;;2.43;;
78740;SDS011;68062;48.726;9.370;2023-02-28T02:00:15;2.60;;;2.40;;
78740;SDS011;68062;48.726;9.370;2023-02-28T02:02:45;2.83;;;2.67;;
78740;SDS011;68062;48.726;9.370;2023-02-28T02:05:15;3.10;;;2.90;;
78740;SDS011;68062;48.726;9.370;2023-02-28T02:07:46;2.70;;;2.50;;
78740;SDS011;68062;48.726;9.370;2023-02-28T02:10:17;5.40;;;3.40;;
78740;SDS011;68062;48.726;9.370;2023-02-28T02:12:56;5.60;;;2.30;;
78740;SDS011;68062;48.726;9.370;2023-02-28T02:15:34;2.80;;;2.50;;
78740;SDS011;68062;48.726;9.370;2023-02-28T02:18:08;2.93;;;2.73;;
78740;SDS011;68062;48.726;9.370;2023-02-28T02:23:59;4.93;;;3.60;;
78740;SDS011;68062;48.726;9.370;2023-02-28T02:26:43;3.10;;;2.77;;
78740;SDS011;68062;48.726;9.370;2023-02-28T02:32:43;2.60;;;2.40;;
78740;SDS011;68062;48.726;9.370;2023-02-28T02:35:20;3.70;;;2.70;;
78740;SDS011;68062;48.726;9.370;2023-02-28T02:37:56;2.73;;;2.57;;
78740;SDS011;68062;48.726;9.370;2023-02-28T02:40:30;3.03;;;2.83;;
78740;SDS011;68062;48.726;9.370;2023-02-28T02:43:02;3.07;;;2.93;;
78740;SDS011;68062;48.726;9.370;2023-02-28T02:45:35;3.43;;;3.13;;
78740;SDS011;68062;48.726;9.370;2023-02-28T02:48:06;3.83;;;3.10;;
78740;SDS011;68062;48.726;9.370;2023-02-28T02:50:39;4.17;;;2.67;;
78740;SDS011;68062;48.726;9.370;2023-02-28T02:53:09;3.47;;;2.53;;
78740;SDS011;68062;48.726;9.370;2023-02-28T02:55:40;2.80;;;2.63;;
78740;SDS011;68062;48.726;9.370;2023-02-28T02:58:10;3.87;;;3.07;;
78740;SDS011;68062;48.726;9.370;2023-02-28T03:00:41;3.20;;;3.00;;
78740;SDS011;68062;48.726;9.370;2023-02-28T03:03:12;3.90;;;2.90;;
78740;SDS011;68062;48.726;9.370;2023-02-28T03:05:43;3.53;;;3.13;;
78740;SDS011;68062;48.726;9.370;2023-02-28T03:08:12;7.97;;;3.33;;
78740;SDS011;68062;48.726;9.370;2023-02-28T03:10:40;3.57;;;2.90;;
78740;SDS011;68062;48.726;9.370;2023-02-28T03:16:23;6.37;;;3.10;;
78740;SDS011;68062;48.726;9.370;2023-02-28T03:19:09;6.73;;;3.10;;
78740;SDS011;68062;48.726;9.370;2023-02-28T03:21:56;3.37;;;2.23;;
78740;SDS011;68062;48.726;9.370;2023-02-28T03:24:37;3.20;;;3.00;;
78740;SDS011;68062;48.726;9.370;2023-02-28T03:27:10;4.27;;;3.37;;
78740;SDS011;68062;48.726;9.370;2023-02-28T03:29:43;3.53;;;3.33;;
78740;SDS011;68062;48.726;9.370;2023-02-28T03:32:15;3.43;;;2.80;;
78740;SDS011;68062;48.726;9.370;2023-02-28T03:34:47;2.70;;;2.57;;
78740;SDS011;68062;48.726;9.370;2023-02-28T03:37:19;2.90;;;2.70;;
78740;SDS011;68062;48.726;9.370;2023-02-28T03:39:49;4.10;;;3.23;;
78740;SDS011;68062;48.726;9.370;2023-02-28T03:42:20;6.70;;;3.43;;
78740;SDS011;68062;48.726;9.370;2023-02-28T03:44:50;4.47;;;3.63;;
78740;SDS011;68062;48.726;9.370;2023-02-28T03:47:21;2.57;;;2.40;;
78740;SDS011;68062;48.726;9.370;2023-02-28T03:49:52;4.00;;;3.30;;
78740;SDS011;68062;48.726;9.370;2023-02-28T03:52:23;3.93;;;3.20;;
78740;SDS011;68062;48.726;9.370;2023-02-28T03:54:56;4.00;;;2.50;;
78740;SDS011;68062;48.726;9.370;2023-02-28T03:57:30;3.30;;;2.87;;
78740;SDS011;68062;48.726;9.370;2023-02-28T04:00:03;4.20;;;2.80;;
78740;SDS011;68062;48.726;9.370;2023-02-28T04:02:33;4.30;;;3.50;;
78740;SDS011;68062;48.726;9.370;2023-02-28T04:04:59;3.43;;;3.23;;
78740;SDS011;68062;48.726;9.370;2023-02-28T04:07:30;3.87;;;3.23;;
78740;SDS011;68062;48.726;9.370;2023-02-28T04:09:56;5.33;;;3.57;;
78740;SDS011;68062;48.726;9.370;2023-02-28T04:12:24;4.30;;;3.67;;
78740;SDS011;68062;48.726;9.370;2023-02-28T04:14:50;6.60;;;3.70;;
78740;SDS011;68062;48.726;9.370;2023-02-28T04:17:17;6.07;;;4.40;;
78740;SDS011;68062;48.726;9.370;2023-02-28T04:19:43;4.40;;;4.03;;
78740;SDS011;68062;48.726;9.370;2023-02-28T04:22:10;4.73;;;3.90;;
78740;SDS011;68062;48.726;9.370;2023-02-28T04:24:38;5.67;;;3.50;;
78740;SDS011;68062;48.726;9.370;2023-02-28T04:27:06;5.97;;;3.10;;
78740;SDS011;68062;48.726;9.370;2023-02-28T04:29:34;6.33;;;4.50;;
78740;SDS011;68062;48.726;9.370;2023-02-28T04:32:01;4.37;;;3.40;;
78740;SDS011;68062;48.726;9.370;2023-02-28T04:34:29;5.50;;;3.30;;
78740;SDS011;68062;48.726;9.370;2023-02-28T04:36:56;7.00;;;3.53;;
78740;SDS011;68062;48.726;9.370;2023-02-28T04:39:23;6.13;;;4.13;;
78740;SDS011;68062;48.726;9.370;2023-02-28T04:41:52;4.00;;;3.60;;
78740;SDS011;68062;48.726;9.370;2023-02-28T04:44:18;4.60;;;3.70;;
78740;SDS011;68062;48.726;9.370;2023-02-28T04:46:47;4.00;;;3.53;;
78740;SDS011;68062;48.726;9.370;2023-02-28T04:49:15;5.10;;;3.83;;
78740;SDS011;68062;48.726;9.370;2023-02-28T04:51:41;6.10;;;3.63;;
78740;SDS011;68062;48.726;9.370;2023-02-28T04:54:08;4.00;;;3.80;;
78740;SDS011;68062;48.726;9.370;2023-02-28T04:56:35;4.17;;;3.93;;
78740;SDS011;68062;48.726;9.370;2023-02-28T04:59:03;4.97;;;3.53;;
78740;SDS011;68062;48.726;9.370;2023-02-28T05:01:31;3.47;;;3.27;;
78740;SDS011;68062;48.726;9.370;2023-02-28T05:04:00;3.83;;;3.63;;
78740;SDS011;68062;48.726;9.370;2023-02-28T05:06:30;3.50;;;3.30;;
78740;SDS011;68062;48.726;9.370;2023-02-28T05:08:58;4.70;;;4.00;;
78740;SDS011;68062;48.726;9.370;2023-02-28T05:11:26;4.30;;;4.07;;
78740;SDS011;68062;48.726;9.370;2023-02-28T05:13:58;4.73;;;3.23;;
78740;SDS011;68062;48.726;9.370;2023-02-28T05:16:26;5.23;;;3.40;;
78740;SDS011;68062;48.726;9.370;2023-02-28T05:18:53;5.60;;;3.90;;
78740;SDS011;68062;48.726;9.370;2023-02-28T05:21:22;6.03;;;4.10;;
78740;SDS011;68062;48.726;9.370;2023-02-28T05:23:51;4.80;;;4.07;;
78740;SDS011;68062;48.726;9.370;2023-02-28T05:26:18;5.57;;;4.10;;
78740;SDS011;68062;48.726;9.370;2023-02-28T05:28:47;5.30;;;3.70;;
78740;SDS011;68062;48.726;9.370;2023-02-28T05:31:13;6.53;;;4.23;;
78740;SDS011;68062;48.726;9.370;2023-02-28T05:33:41;4.50;;;4.10;;
78740;SDS011;68062;48.726;9.370;2023-02-28T05:36:08;6.67;;;4.57;;
78740;SDS011;68062;48.726;9.370;2023-02-28T05:38:35;4.27;;;4.03;;
78740;SDS011;68062;48.726;9.370;2023-02-28T05:41:04;5.00;;;3.70;;
78740;SDS011;68062;48.726;9.370;2023-02-28T05:43:31;5.40;;;4.40;;
78740;SDS011;68062;48.726;9.370;2023-02-28T05:45:58;4.83;;;3.80;;
78740;SDS011;68062;48.726;9.370;2023-02-28T05:48:24;5.10;;;3.93;;
78740;SDS011;68062;48.726;9.370;2023-02-28T05:50:53;4.77;;;3.77;;
78740;SDS011;68062;48.726;9.370;2023-02-28T05:53:19;5.23;;;4.63;;
78740;SDS011;68062;48.726;9.370;2023-02-28T05:55:45;6.03;;;3.90;;
78740;SDS011;68062;48.726;9.370;2023-02-28T05:58:12;4.83;;;4.27;;
78740;SDS011;68062;48.726;9.370;2023-02-28T06:00:39;5.27;;;3.90;;
78740;SDS011;68062;48.726;9.370;2023-02-28T06:03:05;7.70;;;4.80;;
78740;SDS011;68062;48.726;9.370;2023-02-28T06:05:31;6.40;;;4.50;;
78740;SDS011;68062;48.726;9.370;2023-02-28T06:07:59;5.13;;;4.50;;
78740;SDS011;68062;48.726;9.370;2023-02-28T06:10:26;6.50;;;4.50;;
78740;SDS011;68062;48.726;9.370;2023-02-28T06:12:52;6.17;;;4.70;;
78740;SDS011;68062;48.726;9.370;2023-02-28T06:15:19;8.57;;;5.30;;
78740;SDS011;68062;48.726;9.370;2023-02-28T06:17:45;4.90;;;4.50;;
78740;SDS011;68062;48.726;9.370;2023-02-28T06:20:12;7.17;;;4.60;;
78740;SDS011;68062;48.726;9.370;2023-02-28T06:22:39;7.10;;;5.77;;
78740;SDS011;68062;48.726;9.370;2023-02-28T06:25:09;8.33;;;4.93;;
78740;SDS011;68062;48.726;9.370;2023-02-28T06:27:36;6.17;;;5.10;;
78740;SDS011;68062;48.726;9.370;2023-02-28T06:30:03;5.87;;;4.77;;
78740;SDS011;68062;48.726;9.370;2023-02-28T06:32:33;6.43;;;4.60;;
78740;SDS011;68062;48.726;9.370;2023-02-28T06:35:05;6.07;;;4.20;;
78740;SDS011;68062;48.726;9.370;2023-02-28T06:37:34;5.10;;;4.50;;
78740;SDS011;68062;48.726;9.370;2023-02-28T06:40:00;8.20;;;5.50;;
78740;SDS011;68062;48.726;9.370;2023-02-28T06:42:29;4.67;;;4.30;;
78740;SDS011;68062;48.726;9.370;2023-02-28T06:44:55;8.83;;;4.57;;
78740;SDS011;68062;48.726;9.370;2023-02-28T06:47:22;5.37;;;4.57;;
78740;SDS011;68062;48.726;9.370;2023-02-28T06:49:49;9.03;;;5.00;;
78740;SDS011;68062;48.726;9.370;2023-02-28T06:52:15;6.27;;;4.67;;
78740;SDS011;68062;48.726;9.370;2023-02-28T06:54:42;5.80;;;4.90;;
78740;SDS011;68062;48.726;9.370;2023-02-28T06:57:08;5.27;;;4.80;;
78740;SDS011;68062;48.726;9.370;2023-02-28T06:59:36;6.23;;;4.83;;
78740;SDS011;68062;48.726;9.370;2023-02-28T07:02:03;7.20;;;5.70;;
78740;SDS011;68062;48.726;9.370;2023-02-28T07:04:31;7.50;;;4.80;;
78740;SDS011;68062;48.726;9.370;2023-02-28T07:06:57;9.43;;;5.77;;
78740;SDS011;68062;48.726;9.370;2023-02-28T07:09:24;7.03;;;5.90;;
78740;SDS011;68062;48.726;9.370;2023-02-28T07:11:54;7.33;;;5.30;;
78740;SDS011;68062;48.726;9.370;2023-02-28T07:14:21;7.90;;;6.40;;
78740;SDS011;68062;48.726;9.370;2023-02-28T07:16:48;6.70;;;5.97;;
78740;SDS011;68062;48.726;9.370;2023-02-28T07:19:15;7.40;;;5.80;;
78740;SDS011;68062;48.726;9.370;2023-02-28T07:21:41;5.67;;;4.60;;
78740;SDS011;68062;48.726;9.370;2023-02-28T07:24:08;7.90;;;4.73;;
78740;SDS011;68062;48.726;9.370;2023-02-28T07:26:35;6.67;;;5.03;;
78740;SDS011;68062;48.726;9.370;2023-02-28T07:29:01;8.23;;;5.90;;
78740;SDS011;68062;48.726;9.370;2023-02-28T07:31:28;7.43;;;5.20;;
78740;SDS011;68062;48.726;9.370;2023-02-28T07:33:56;7.47;;;6.00;;
78740;SDS011;68062;48.726;9.370;2023-02-28T07:36:22;7.63;;;5.20;;
78740;SDS011;68062;48.726;9.370;2023-02-28T07:38:49;6.63;;;5.37;;
78740;SDS011;68062;48.726;9.370;2023-02-28T07:41:15;7.47;;;5.20;;
78740;SDS011;68062;48.726;9.370;2023-02-28T07:43:43;5.70;;;5.40;;
78740;SDS011;68062;48.726;9.370;2023-02-28T07:46:10;8.90;;;6.00;;
78740;SDS011;68062;48.726;9.370;2023-02-28T07:48:40;6.77;;;6.10;;
78740;SDS011;68062;48.726;9.370;2023-02-28T07:51:08;7.00;;;4.90;;
78740;SDS011;68062;48.726;9.370;2023-02-28T07:53:34;7.90;;;5.90;;
78740;SDS011;68062;48.726;9.370;2023-02-28T07:56:01;8.77;;;5.50;;
78740;SDS011;68062;48.726;9.370;2023-02-28T07:58:29;6.40;;;5.23;;
78740;SDS011;68062;48.726;9.370;2023-02-28T08:00:56;6.60;;;5.77;;
78740;SDS011;68062;48.726;9.370;2023-02-28T08:03:23;11.43;;;6.10;;
78740;SDS011;68062;48.726;9.370;2023-02-28T08:05:50;6.03;;;5.03;;
78740;SDS011;68062;48.726;9.370;2023-02-28T08:08:19;8.80;;;5.03;;
78740;SDS011;68062;48.726;9.370;2023-02-28T08:10:45;7.90;;;5.73;;
78740;SDS011;68062;48.726;9.370;2023-02-28T08:13:12;10.20;;;6.17;;
78740;SDS011;68062;48.726;9.370;2023-02-28T08:15:40;8.53;;;5.43;;
78740;SDS011;68062;48.726;9.370;2023-02-28T08:18:06;7.33;;;5.63;;
78740;SDS011;68062;48.726;9.370;2023-02-28T08:20:33;5.93;;;5.60;;
78740;SDS011;68062;48.726;9.370;2023-02-28T08:22:59;5.53;;;5.00;;
78740;SDS011;68062;48.726;9.370;2023-02-28T08:25:27;6.73;;;4.90;;
78740;SDS011;68062;48.726;9.370;2023-02-28T08:27:53;9.20;;;5.90;;
78740;SDS011;68062;48.726;9.370;2023-02-28T08:30:21;7.97;;;6.17;;
78740;SDS011;68062;48.726;9.370;2023-02-28T08:32:47;9.17;;;6.20;;
78740;SDS011;68062;48.726;9.370;2023-02-28T08:35:14;10.33;;;5.83;;
78740;SDS011;68062;48.726;9.370;2023-02-28T08:37:41;9.67;;;7.33;;
78740;SDS011;68062;48.726;9.370;2023-02-28T08:40:08;9.27;;;6.30;;
78740;SDS011;68062;48.726;9.370;2023-02-28T08:42:36;7.40;;;4.97;;
78740;SDS011;68062;48.726;9.370;2023-02-28T08:45:03;8.33;;;6.30;;
78740;SDS011;68062;48.726;9.370;2023-02-28T08:47:30;8.47;;;5.63;;
78740;SDS011;68062;48.726;9.370;2023-02-28T08:49:56;7.43;;;6.17;;
78740;SDS011;68062;48.726;9.370;2023-02-28T08:52:23;8.53;;;6.10;;
78740;SDS011;68062;48.726;9.370;2023-02-28T08:54:49;8.13;;;6.57;;
78740;SDS011;68062;48.726;9.370;2023-02-28T08:57:16;10.63;;;6.40;;
78740;SDS011;68062;48.726;9.370;2023-02-28T08:59:43;8.73;;;5.97;;
78740;SDS011;68062;48.726;9.370;2023-02-28T09:02:11;8.80;;;6.80;;
78740;SDS011;68062;48.726;9.370;2023-02-28T09:04:39;7.57;;;6.30;;
78740;SDS011;68062;48.726;9.370;2023-02-28T09:07:05;10.57;;;6.57;;
78740;SDS011;68062;48.726;9.370;2023-02-28T09:09:32;8.70;;;5.40;;
78740;SDS011;68062;48.726;9.370;2023-02-28T09:11:58;7.57;;;6.40;;
78740;SDS011;68062;48.726;9.370;2023-02-28T09:14:25;8.20;;;6.60;;
78740;SDS011;68062;48.726;9.370;2023-02-28T09:16:53;10.27;;;6.50;;
78740;SDS011;68062;48.726;9.370;2023-02-28T09:19:19;8.80;;;6.23;;
78740;SDS011;68062;48.726;9.370;2023-02-28T09:21:47;7.80;;;5.80;;
78740;SDS011;68062;48.726;9.370;2023-02-28T09:24:13;11.43;;;6.83;;
78740;SDS011;68062;48.726;9.370;2023-02-28T09:26:40;10.80;;;6.93;;
78740;SDS011;68062;48.726;9.370;2023-02-28T09:29:06;9.40;;;7.30;;
78740;SDS011;68062;48.726;9.370;2023-02-28T09:31:33;8.20;;;5.83;;
78740;SDS011;68062;48.726;9.370;2023-02-28T09:34:00;9.30;;;6.70;;
78740;SDS011;68062;48.726;9.370;2023-02-28T09:36:27;11.10;;;7.00;;
78740;SDS011;68062;48.726;9.370;2023-02-28T09:38:55;8.57;;;5.80;;
78740;SDS011;68062;48.726;9.370;2023-02-28T09:41:22;7.83;;;6.00;;
78740;SDS011;68062;48.726;9.370;2023-02-28T09:43:51;8.20;;;5.87;;
78740;SDS011;68062;48.726;9.370;2023-02-28T09:46:25;8.23;;;6.90;;
78740;SDS011;68062;48.726;9.370;2023-02-28T09:48:56;10.80;;;8.30;;
78740;SDS011;68062;48.726;9.370;2023-02-28T09:51:30;12.03;;;6.73;;
78740;SDS011;68062;48.726;9.370;2023-02-28T09:54:08;8.93;;;6.27;;
78740;SDS011;68062;48.726;9.370;2023-02-28T09:56:44;11.30;;;6.53;;
78740;SDS011;68062;48.726;9.370;2023-02-28T09:59:13;8.83;;;6.63;;
78740;SDS011;68062;48.726;9.370;2023-02-28T10:01:49;9.37;;;6.60;;
78740;SDS011;68062;48.726;9.370;2023-02-28T10:04:28;13.10;;;7.50;;
78740;SDS011;68062;48.726;9.370;2023-02-28T10:07:05;8.40;;;5.37;;
78740;SDS011;68062;48.726;9.370;2023-02-28T10:09:44;7.83;;;6.37;;
78740;SDS011;68062;48.726;9.370;2023-02-28T10:12:12;7.20;;;6.57;;
78740;SDS011;68062;48.726;9.370;2023-02-28T10:14:43;8.47;;;7.20;;
78740;SDS011;68062;48.726;9.370;2023-02-28T10:17:13;11.47;;;6.80;;
78740;SDS011;68062;48.726;9.370;2023-02-28T10:19:46;7.03;;;6.60;;
78740;SDS011;68062;48.726;9.370;2023-02-28T10:22:24;9.33;;;6.90;;
78740;SDS011;68062;48.726;9.370;2023-02-28T10:24:54;10.43;;;6.57;;
78740;SDS011;68062;48.726;9.370;2023-02-28T10:27:25;9.97;;;7.10;;
78740;SDS011;68062;48.726;9.370;2023-02-28T10:29:56;8.10;;;6.40;;
78740;SDS011;68062;48.726;9.370;2023-02-28T10:32:25;11.17;;;7.27;;
78740;SDS011;68062;48.726;9.370;2023-02-28T10:34:55;7.90;;;6.13;;
78740;SDS011;68062;48.726;9.370;2023-02-28T10:37:26;9.13;;;7.13;;
78740;SDS011;68062;48.726;9.370;2023-02-28T10:39:53;10.63;;;6.63;;
78740;SDS011;68062;48.726;9.370;2023-02-28T10:42:21;9.83;;;7.80;;
78740;SDS011;68062;48.726;9.370;2023-02-28T10:45:03;8.40;;;7.10;;
78740;SDS011;68062;48.726;9.370;2023-02-28T10:47:32;10.07;;;6.43;;
78740;SDS011;68062;48.726;9.370;2023-02-28T10:50:01;10.30;;;7.50;;
78740;SDS011;68062;48.726;9.370;2023-02-28T10:52:37;8.97;;;7.53;;
78740;SDS011;68062;48.726;9.370;2023-02-28T10:55:16;12.17;;;8.73;;
78740;SDS011;68062;48.726;9.370;2023-02-28T10:57:47;9.60;;;7.17;;
78740;SDS011;68062;48.726;9.370;2023-02-28T11:00:15;8.67;;;7.10;;
78740;SDS011;68062;48.726;9.370;2023-02-28T11:02:44;8.97;;;7.00;;
78740;SDS011;68062;48.726;9.370;2023-02-28T11:05:25;10.63;;;8.00;;
78740;SDS011;68062;48.726;9.370;2023-02-28T11:07:55;11.90;;;7.40;;
78740;SDS011;68062;48.726;9.370;2023-02-28T11:10:26;10.67;;;7.10;;
78740;SDS011;68062;48.726;9.370;2023-02-28T11:12:57;8.77;;;7.20;;
78740;SDS011;68062;48.726;9.370;2023-02-28T11:15:25;9.07;;;6.80;;
78740;SDS011;68062;48.726;9.370;2023-02-28T11:17:54;8.10;;;6.87;;
78740;SDS011;68062;48.726;9.370;2023-02-28T11:20:23;8.40;;;7.97;;
78740;SDS011;68062;48.726;9.370;2023-02-28T11:22:54;10.57;;;8.00;;
78740;SDS011;68062;48.726;9.370;2023-02-28T11:25:23;11.33;;;7.70;;
78740;SDS011;68062;48.726;9.370;2023-02-28T11:27:53;12.00;;;7.77;;
78740;SDS011;68062;48.726;9.370;2023-02-28T11:30:24;12.30;;;8.30;;
78740;SDS011;68062;48.726;9.370;2023-02-28T11:32:52;9.77;;;7.20;;
78740;SDS011;68062;48.726;9.370;2023-02-28T11:35:21;8.97;;;7.07;;
78740;SDS011;68062;48.726;9.370;2023-02-28T11:37:51;10.57;;;7.40;;
78740;SDS011;68062;48.726;9.370;2023-02-28T11:40:21;9.87;;;7.70;;
78740;SDS011;68062;48.726;9.370;2023-02-28T11:42:57;8.43;;;6.70;;
78740;SDS011;68062;48.726;9.370;2023-02-28T11:45:37;9.17;;;6.17;;
78740;SDS011;68062;48.726;9.370;2023-02-28T11:48:14;9.30;;;6.83;;
78740;SDS011;68062;48.726;9.370;2023-02-28T11:50:49;10.07;;;7.70;;
78740;SDS011;68062;48.726;9.370;2023-02-28T11:53:27;8.37;;;6.80;;
78740;SDS011;68062;48.726;9.370;2023-02-28T11:56:21;10.03;;;6.67;;
78740;SDS011;68062;48.726;9.370;2023-02-28T11:59:00;12.93;;;7.33;;
78740;SDS011;68062;48.726;9.370;2023-02-28T12:01:45;9.30;;;7.33;;
78740;SDS011;68062;48.726;9.370;2023-02-28T12:04:30;8.20;;;7.10;;
78740;SDS011;68062;48.726;9.370;2023-02-28T12:07:09;10.87;;;6.77;;
78740;SDS011;68062;48.726;9.370;2023-02-28T12:09:47;6.60;;;5.60;;
78740;SDS011;68062;48.726;9.370;2023-02-28T12:12:29;8.63;;;7.20;;
78740;SDS011;68062;48.726;9.370;2023-02-28T12:15:21;8.93;;;7.10;;
78740;SDS011;68062;48.726;9.370;2023-02-28T12:18:02;9.47;;;7.00;;
78740;SDS011;68062;48.726;9.370;2023-02-28T12:20:42;9.40;;;7.33;;
78740;SDS011;68062;48.726;9.370;2023-02-28T12:23:23;11.63;;;6.77;;
78740;SDS011;68062;48.726;9.370;2023-02-28T12:26:05;10.50;;;7.73;;
78740;SDS011;68062;48.726;9.370;2023-02-28T12:28:40;7.80;;;7.10;;
78740;SDS011;68062;48.726;9.370;2023-02-28T12:31:13;8.87;;;7.40;;
78740;SDS011;68062;48.726;9.370;2023-02-28T12:33:45;8.77;;;7.30;;
78740;SDS011;68062;48.726;9.370;2023-02-28T12:36:14;9.43;;;6.77;;
78740;SDS011;68062;48.726;9.370;2023-02-28T12:38:47;8.70;;;6.90;;
78740;SDS011;68062;48.726;9.370;2023-02-28T12:41:18;10.00;;;8.13;;
78740;SDS011;68062;48.726;9.370;2023-02-28T12:43:55;10.03;;;7.77;;
78740;SDS011;68062;48.726;9.370;2023-02-28T12:46:28;8.00;;;7.23;;
78740;SDS011;68062;48.726;9.370;2023-02-28T12:48:59;10.10;;;8.23;;
78740;SDS011;68062;48.726;9.370;2023-02-28T12:51:30;11.43;;;8.53;;
78740;SDS011;68062;48.726;9.370;2023-02-28T12:54:00;9.73;;;6.97;;
78740;SDS011;68062;48.726;9.370;2023-02-28T12:56:38;10.03;;;8.00;;
78740;SDS011;68062;48.726;9.370;2023-02-28T12:59:14;10.53;;;7.27;;
78740;SDS011;68062;48.726;9.370;2023-02-28T13:02:01;10.83;;;6.77;;
78740;SDS011;68062;48.726;9.370;2023-02-28T13:04:51;9.20;;;7.60;;
78740;SDS011;68062;48.726;9.370;2023-02-28T13:07:41;10.57;;;7.90;;
78740;SDS011;68062;48.726;9.370;2023-02-28T13:10:20;11.10;;;7.50;;
78740;SDS011;68062;48.726;9.370;2023-02-28T13:12:48;14.07;;;8.60;;
78740;SDS011;68062;48.726;9.370;2023-02-28T13:15:18;8.23;;;5.90;;
78740;SDS011;68062;48.726;9.370;2023-02-28T13:17:49;8.93;;;7.60;;
78740;SDS011;68062;48.726;9.370;2023-02-28T13:20:18;8.33;;;6.77;;
78740;SDS011;68062;48.726;9.370;2023-02-28T13:22:46;10.07;;;6.93;;
78740;SDS011;68062;48.726;9.370;2023-02-28T13:31:32;9.30;;;7.80;;
78740;SDS011;68062;48.726;9.370;2023-02-28T13:34:21;8.17;;;7.73;;
78740;SDS011;68062;48.726;9.370;2023-02-28T13:36:47;14.50;;;6.97;;
78740;SDS011;68062;48.726;9.370;2023-02-28T13:42:23;8.10;;;7.40;;
78740;SDS011;68062;48.726;9.370;2023-02-28T13:47:51;9.37;;;7.07;;
78740;SDS011;68062;48.726;9.370;2023-02-28T13:50:22;8.80;;;6.80;;
78740;SDS011;68062;48.726;9.370;2023-02-28T13:52:59;9.90;;;7.00;;
78740;SDS011;68062;48.726;9.370;2023-02-28T13:55:43;7.37;;;6.97;;
78740;SDS011;68062;48.726;9.370;2023-02-28T13:58:24;9.90;;;7.47;;
78740;SDS011;68062;48.726;9.370;2023-02-28T14:01:11;8.30;;;6.97;;
78740;SDS011;68062;48.726;9.370;2023-02-28T14:03:53;9.40;;;7.50;;
78740;SDS011;68062;48.726;9.370;2023-02-28T14:06:37;7.93;;;6.40;;
78740;SDS011;68062;48.726;9.370;2023-02-28T14:09:06;8.80;;;6.37;;
78740;SDS011;68062;48.726;9.370;2023-02-28T14:11:45;8.47;;;6.57;;
78740;SDS011;68062;48.726;9.370;2023-02-28T14:17:23;9.23;;;6.53;;
78740;SDS011;68062;48.726;9.370;2023-02-28T14:19:51;10.43;;;6.60;;
78740;SDS011;68062;48.726;9.370;2023-02-28T14:22:21;11.00;;;8.03;;
78740;SDS011;68062;48.726;9.370;2023-02-28T14:25:10;8.40;;;6.20;;
78740;SDS011;68062;48.726;9.370;2023-02-28T14:27:45;7.30;;;6.57;;
78740;SDS011;68062;48.726;9.370;2023-02-28T14:33:14;9.20;;;7.40;;
78740;SDS011;68062;48.726;9.370;2023-02-28T14:38:40;7.53;;;6.90;;
78740;SDS011;68062;48.726;9.370;2023-02-28T14:41:14;10.73;;;7.43;;
78740;SDS011;68062;48.726;9.370;2023-02-28T14:43:49;7.43;;;6.60;;
78740;SDS011;68062;48.726;9.370;2023-02-28T14:46:17;8.00;;;6.83;;
78740;SDS011;68062;48.726;9.370;2023-02-28T14:48:45;8.07;;;6.53;;
78740;SDS011;68062;48.726;9.370;2023-02-28T14:51:17;9.77;;;6.70;;
78740;SDS011;68062;48.726;9.370;2023-02-28T14:53:48;7.63;;;6.57;;
78740;SDS011;68062;48.726;9.370;2023-02-28T14:56:19;11.50;;;7.60;;
78740;SDS011;68062;48.726;9.370;2023-02-28T14:58:50;9.87;;;6.83;;
78740;SDS011;68062;48.726;9.370;2023-02-28T15:01:19;9.60;;;7.10;;
78740;SDS011;68062;48.726;9.370;2023-02-28T15:03:47;10.37;;;6.90;;
78740;SDS011;68062;48.726;9.370;2023-02-28T15:06:14;10.40;;;8.27;;
78740;SDS011;68062;48.726;9.370;2023-02-28T15:08:42;8.83;;;7.33;;
78740;SDS011;68062;48.726;9.370;2023-02-28T15:11:13;9.70;;;6.70;;
78740;SDS011;68062;48.726;9.370;2023-02-28T15:13:44;11.87;;;8.00;;
78740;SDS011;68062;48.726;9.370;2023-02-28T15:16:13;9.83;;;6.83;;
78740;SDS011;68062;48.726;9.370;2023-02-28T15:18:44;7.80;;;6.43;;
78740;SDS011;68062;48.726;9.370;2023-02-28T15:21:15;11.40;;;7.67;;
78740;SDS011;68062;48.726;9.370;2023-02-28T15:23:44;10.17;;;7.43;;
78740;SDS011;68062;48.726;9.370;2023-02-28T15:26:15;9.23;;;7.43;;
78740;SDS011;68062;48.726;9.370;2023-02-28T15:28:45;8.60;;;6.93;;
78740;SDS011;68062;48.726;9.370;2023-02-28T15:31:20;12.00;;;7.50;;
78740;SDS011;68062;48.726;9.370;2023-02-28T15:33:53;9.50;;;7.00;;
78740;SDS011;68062;48.726;9.370;2023-02-28T15:36:23;9.37;;;7.70;;
78740;SDS011;68062;48.726;9.370;2023-02-28T15:38:52;6.10;;;5.80;;